createdAt,value
2023-05-19T00:01:30.040Z,102437.75
2023-05-19T00:04:02.941Z,102443.00
2023-05-19T00:06:33.216Z,102438.75
2023-05-19T00:09:07.883Z,102448.38
2023-05-19T00:11:39.674Z,102438.81
2023-05-19T00:14:09.902Z,102446.72
2023-05-19T00:16:39.050Z,102444.25
2023-05-19T00:19:10.254Z,102422.50
2023-05-19T00:21:41.012Z,102443.41
2023-05-19T00:24:08.988Z,102439.16
2023-05-19T00:26:36.340Z,102442.72
2023-05-19T00:29:06.281Z,102441.00
2023-05-19T00:31:37.908Z,102437.59
2023-05-19T00:34:05.314Z,102429.06
2023-05-19T00:36:33.707Z,102430.81
2023-05-19T00:39:01.025Z,102423.03
2023-05-19T00:41:29.950Z,102417.84
2023-05-19T00:43:57.680Z,102418.81
2023-05-19T00:46:25.949Z,102417.19
2023-05-19T00:48:53.255Z,102405.97
2023-05-19T00:51:20.947Z,102414.66
2023-05-19T00:53:52.356Z,102411.28
2023-05-19T00:56:21.829Z,102416.50
2023-05-19T00:58:52.222Z,102400.00
2023-05-19T01:01:22.452Z,102406.19
2023-05-19T01:03:51.420Z,102402.69
2023-05-19T01:06:22.186Z,102410.56
2023-05-19T01:08:51.914Z,102414.13
2023-05-19T01:11:21.512Z,102416.72
2023-05-19T01:13:49.706Z,102420.16
2023-05-19T01:16:39.301Z,102421.88
2023-05-19T01:19:33.523Z,102414.09
2023-05-19T01:22:23.029Z,102413.19
2023-05-19T01:25:55.312Z,102415.88
2023-05-19T01:28:55.679Z,102418.50
2023-05-19T01:31:26.636Z,102418.50
2023-05-19T01:33:56.743Z,102418.56
2023-05-19T01:36:26.994Z,102422.09
2023-05-19T01:38:59.157Z,102411.72
2023-05-19T01:41:30.619Z,102416.91
2023-05-19T01:43:58.558Z,102422.97
2023-05-19T01:46:26.047Z,102421.31
2023-05-19T01:48:56.053Z,102412.69
2023-05-19T01:51:23.369Z,102421.34
2023-05-19T01:53:51.253Z,102409.28
2023-05-19T01:57:09.967Z,102405.00
2023-05-19T02:00:33.446Z,102400.69
2023-05-19T02:03:57.351Z,102409.44
2023-05-19T02:06:56.459Z,102403.34
2023-05-19T02:10:02.757Z,102398.19
2023-05-19T02:12:40.272Z,102398.22
2023-05-19T02:15:27.199Z,102392.97
2023-05-19T02:18:00.283Z,102393.00
2023-05-19T02:20:29.572Z,102397.31
2023-05-19T02:22:56.899Z,102399.06
2023-05-19T02:25:24.926Z,102385.16
2023-05-19T02:27:53.169Z,102392.97
2023-05-19T02:30:20.593Z,102386.88
2023-05-19T02:32:48.455Z,102389.47
2023-05-19T02:35:16.866Z,102394.63
2023-05-19T02:37:44.378Z,102393.00
2023-05-19T02:40:13.071Z,102379.97
2023-05-19T02:42:41.980Z,102381.75
2023-05-19T02:45:10.648Z,102380.91
2023-05-19T02:47:41.625Z,102376.56
2023-05-19T02:50:09.696Z,102381.84
2023-05-19T02:52:37.091Z,102373.22
2023-05-19T02:55:04.893Z,102381.09
2023-05-19T02:57:34.924Z,102376.75
2023-05-19T03:00:02.888Z,102375.06
2023-05-19T03:02:30.289Z,102379.38
2023-05-19T03:04:57.949Z,102373.38
2023-05-19T03:07:25.540Z,102368.22
2023-05-19T03:09:53.393Z,102370.03
2023-05-19T03:12:21.853Z,102369.13
2023-05-19T03:14:49.251Z,102362.25
2023-05-19T03:17:16.602Z,102370.06
2023-05-19T03:19:44.065Z,102372.72
2023-05-19T03:22:11.388Z,102373.59
2023-05-19T03:24:39.020Z,102376.25
2023-05-19T03:27:06.568Z,102371.91
2023-05-19T03:29:35.552Z,102366.75
2023-05-19T03:32:03.518Z,102373.69
2023-05-19T03:34:32.638Z,102372.81
2023-05-19T03:36:59.921Z,102375.44
2023-05-19T03:39:27.202Z,102374.56
2023-05-19T03:41:54.464Z,102376.34
2023-05-19T03:44:21.923Z,102374.59
2023-05-19T03:46:49.400Z,102381.53
2023-05-19T03:49:46.041Z,102389.38
2023-05-19T03:52:33.693Z,102388.53
2023-05-19T03:55:11.544Z,102387.69
2023-05-19T03:57:41.441Z,102393.81
2023-05-19T04:00:12.338Z,102389.44
2023-05-19T04:02:41.112Z,102393.81
2023-05-19T04:05:09.669Z,102396.41
2023-05-19T04:07:38.099Z,102391.25
2023-05-19T04:10:06.428Z,102393.81
2023-05-19T04:12:34.030Z,102399.88
2023-05-19T04:15:01.414Z,102395.53
2023-05-19T04:17:28.940Z,102397.25
2023-05-19T04:19:57.611Z,102395.47
2023-05-19T04:22:25.920Z,102403.22
2023-05-19T04:24:53.210Z,102394.59
2023-05-19T04:27:22.198Z,102395.38
2023-05-19T04:29:50.032Z,102396.28
2023-05-19T04:32:17.843Z,102392.75
2023-05-19T04:34:46.224Z,102389.28
2023-05-19T04:37:20.617Z,102390.97
2023-05-19T04:39:48.379Z,102390.03
2023-05-19T04:42:19.326Z,102390.88
2023-05-19T04:44:49.375Z,102394.19
2023-05-19T04:47:21.545Z,102388.97
2023-05-19T04:49:49.827Z,102393.31
2023-05-19T04:52:21.835Z,102396.69
2023-05-19T04:54:49.379Z,102387.97
2023-05-19T04:57:17.295Z,102391.41
2023-05-19T04:59:46.377Z,102391.34
2023-05-19T05:02:13.997Z,102387.81
2023-05-19T05:04:44.169Z,102388.56
2023-05-19T05:07:11.528Z,102392.88
2023-05-19T05:09:39.457Z,102386.66
2023-05-19T05:12:09.166Z,102393.56
2023-05-19T05:14:40.155Z,102396.03
2023-05-19T05:17:09.753Z,102388.88
2023-05-19T05:19:38.022Z,102402.63
2023-05-19T05:22:08.466Z,102395.47
2023-05-19T05:24:39.691Z,102399.63
2023-05-19T05:27:10.265Z,102390.00
2023-05-19T05:29:38.010Z,102398.41
2023-05-19T05:32:07.953Z,102399.91
2023-05-19T05:34:37.685Z,102394.41
2023-05-19T05:37:05.836Z,102401.13
2023-05-19T05:39:34.061Z,102399.03
2023-05-19T05:42:01.520Z,102404.19
2023-05-19T05:44:29.196Z,102397.09
2023-05-19T05:46:57.447Z,102405.66
2023-05-19T05:49:25.531Z,102394.97
2023-05-19T05:54:30.251Z,102389.41
2023-05-19T05:56:58.474Z,102388.16
2023-05-19T05:59:26.557Z,102401.00
2023-05-19T06:01:53.912Z,102389.28
2023-05-19T06:04:22.675Z,102392.66
2023-05-19T06:06:49.941Z,102401.94
2023-05-19T06:09:22.206Z,102398.06
2023-05-19T06:11:49.593Z,102389.13
2023-05-19T06:14:17.432Z,102395.06
2023-05-19T06:17:12.646Z,102399.28
2023-05-19T06:19:39.925Z,102400.78
2023-05-19T06:22:07.779Z,102406.72
2023-05-19T06:24:36.273Z,102404.88
2023-05-19T06:27:05.664Z,102406.34
2023-05-19T06:29:32.994Z,102409.53
2023-05-19T06:32:03.719Z,102399.66
2023-05-19T06:34:31.277Z,102406.38
2023-05-19T06:37:00.196Z,102403.47
2023-05-19T06:39:27.504Z,102411.00
2023-05-19T06:41:55.150Z,102411.50
2023-05-19T06:44:40.987Z,102399.94
2023-05-19T06:47:14.315Z,102411.66
2023-05-19T06:49:42.628Z,102406.84
2023-05-19T06:52:10.434Z,102408.06
2023-05-19T06:54:38.217Z,102405.94
2023-05-19T06:57:05.903Z,102404.91
2023-05-19T06:59:33.565Z,102403.69
2023-05-19T07:02:02.512Z,102409.50
2023-05-19T07:04:30.570Z,102405.78
2023-05-19T07:06:57.913Z,102411.53
2023-05-19T07:09:26.278Z,102403.78
2023-05-19T07:11:53.801Z,102402.63
2023-05-19T07:14:23.493Z,102410.13
2023-05-19T07:16:51.002Z,102404.22
2023-05-19T07:19:21.515Z,102405.78
2023-05-19T07:21:49.312Z,102406.19
2023-05-19T07:24:16.618Z,102402.41
2023-05-19T07:26:45.023Z,102396.09
2023-05-19T07:29:13.089Z,102413.97
2023-05-19T07:31:40.994Z,102406.56
2023-05-19T07:34:09.304Z,102407.00
2023-05-19T07:36:36.786Z,102407.47
2023-05-19T07:39:06.213Z,102401.13
2023-05-19T07:41:36.389Z,102409.41
2023-05-19T07:44:08.001Z,102413.13
2023-05-19T07:46:39.250Z,102406.56
2023-05-19T07:49:06.685Z,102410.19
2023-05-19T07:51:36.472Z,102408.59
2023-05-19T07:54:04.269Z,102402.72
2023-05-19T07:56:37.488Z,102397.66
2023-05-19T07:59:05.364Z,102392.81
2023-05-19T08:01:35.350Z,102397.88
2023-05-19T08:04:08.530Z,102390.16
2023-05-19T08:06:37.050Z,102397.16
2023-05-19T08:09:06.184Z,102401.00
2023-05-19T08:11:36.606Z,102400.31
2023-05-19T08:14:04.839Z,102393.53
2023-05-19T08:16:32.404Z,102386.38
2023-05-19T08:19:02.735Z,102386.31
2023-05-19T08:21:31.326Z,102375.09
2023-05-19T08:23:58.558Z,102369.38
2023-05-19T08:26:26.388Z,102378.84
2023-05-19T08:28:54.354Z,102375.91
2023-05-19T08:31:22.922Z,102373.50
2023-05-19T08:33:51.738Z,102373.03
2023-05-19T08:36:19.835Z,102368.06
2023-05-19T08:38:47.125Z,102366.47
2023-05-19T08:41:14.539Z,102363.78
2023-05-19T08:43:42.350Z,102360.22
2023-05-19T08:46:15.251Z,102368.97
2023-05-19T08:48:44.977Z,102361.84
2023-05-19T08:51:43.807Z,102358.63
2023-05-19T08:54:25.573Z,102349.53
2023-05-19T08:56:53.436Z,102346.34
2023-05-19T08:59:22.488Z,102347.56
2023-05-19T09:01:51.372Z,102336.75
2023-05-19T09:04:21.006Z,102337.38
2023-05-19T09:06:48.604Z,102341.09
2023-05-19T09:09:16.066Z,102337.63
2023-05-19T09:11:47.304Z,102340.88
2023-05-19T09:14:16.033Z,102334.66
2023-05-19T09:16:50.941Z,102334.81
2023-05-19T09:19:21.352Z,102329.84
2023-05-19T09:22:05.561Z,102330.81
2023-05-19T09:24:35.190Z,102324.63
2023-05-19T09:27:02.470Z,102323.03
2023-05-19T09:29:31.177Z,102320.03
2023-05-19T09:32:04.323Z,102321.44
2023-05-19T09:34:31.909Z,102318.69
2023-05-19T09:36:59.965Z,102324.47
2023-05-19T09:39:28.938Z,102314.94
2023-05-19T09:41:58.735Z,102317.44
2023-05-19T09:44:31.275Z,102310.13
2023-05-19T09:46:58.987Z,102312.03
2023-05-19T09:49:30.296Z,102314.16
2023-05-19T09:52:04.857Z,102314.75
2023-05-19T09:54:36.014Z,102315.75
2023-05-19T09:57:08.157Z,102323.53
2023-05-19T09:59:39.038Z,102312.13
2023-05-19T10:02:15.672Z,102323.06
2023-05-19T10:04:43.502Z,102315.06
2023-05-19T10:07:15.820Z,102311.75
2023-05-19T10:09:44.368Z,102321.47
2023-05-19T10:12:13.383Z,102320.75
2023-05-19T10:14:41.692Z,102322.25
2023-05-19T10:17:12.361Z,102315.94
2023-05-19T10:19:41.485Z,102316.38
2023-05-19T10:22:08.825Z,102315.22
2023-05-19T10:24:36.170Z,102301.16
2023-05-19T10:27:15.973Z,102305.09
2023-05-19T10:29:51.813Z,102292.94
2023-05-19T10:32:29.335Z,102297.34
2023-05-19T10:35:33.517Z,102319.88
2023-05-19T10:38:38.688Z,102298.75
2023-05-19T10:41:47.036Z,102297.63
2023-05-19T10:45:13.374Z,102291.94
2023-05-19T10:47:45.671Z,102286.47
2023-05-19T10:50:13.189Z,102279.72
2023-05-19T10:52:41.215Z,102283.44
2023-05-19T10:55:18.404Z,102284.22
2023-05-19T10:57:58.252Z,102282.53
2023-05-19T11:00:31.944Z,102279.41
2023-05-19T11:03:18.619Z,102289.19
2023-05-19T11:05:46.542Z,102277.97
2023-05-19T11:08:14.170Z,102281.34
2023-05-19T11:10:46.258Z,102285.88
2023-05-19T11:13:23.380Z,102291.50
2023-05-19T11:15:51.018Z,102283.22
2023-05-19T11:18:20.680Z,102281.66
2023-05-19T11:21:02.356Z,102282.22
2023-05-19T11:23:37.919Z,102280.72
2023-05-19T11:26:10.156Z,102278.75
2023-05-19T11:28:38.715Z,102277.63
2023-05-19T11:31:10.378Z,102277.06
2023-05-19T11:33:39.806Z,102276.34
2023-05-19T11:36:08.373Z,102273.75
2023-05-19T11:38:35.664Z,102273.06
2023-05-19T11:41:04.363Z,102268.69
2023-05-19T11:43:31.763Z,102258.16
2023-05-19T11:46:00.740Z,102261.22
2023-05-19T11:48:31.286Z,102258.47
2023-05-19T11:51:01.049Z,102254.94
2023-05-19T11:53:33.294Z,102249.63
2023-05-19T11:56:04.634Z,102257.34
2023-05-19T11:58:32.149Z,102257.09
2023-05-19T12:01:04.948Z,102245.09
2023-05-19T12:03:33.171Z,102257.66
2023-05-19T12:06:03.604Z,102246.16
2023-05-19T12:08:31.008Z,102247.16
2023-05-19T12:10:58.434Z,102236.97
2023-05-19T12:13:26.144Z,102240.03
2023-05-19T12:15:54.053Z,102239.59
2023-05-19T12:18:21.561Z,102223.63
2023-05-19T12:20:49.237Z,102245.41
2023-05-19T12:23:16.757Z,102237.22
2023-05-19T12:25:44.395Z,102220.03
2023-05-19T12:28:12.557Z,102226.06
2023-05-19T12:30:40.050Z,102227.19
2023-05-19T12:33:08.632Z,102215.75
2023-05-19T12:35:39.312Z,102204.72
2023-05-19T12:38:09.750Z,102219.19
2023-05-19T12:40:42.409Z,102219.44
2023-05-19T12:43:25.221Z,102228.66
2023-05-19T12:45:54.302Z,102221.50
2023-05-19T12:48:24.950Z,102217.38
2023-05-19T12:50:54.511Z,102210.69
2023-05-19T12:53:22.332Z,102217.38
2023-05-19T12:55:53.108Z,102218.63
2023-05-19T12:58:22.790Z,102218.63
2023-05-19T13:00:50.617Z,102205.88
2023-05-19T13:03:20.769Z,102207.00
2023-05-19T13:05:51.144Z,102201.88
2023-05-19T13:08:24.070Z,102203.84
2023-05-19T13:10:51.704Z,102196.25
2023-05-19T13:13:19.449Z,102202.16
2023-05-19T13:15:51.062Z,102196.84
2023-05-19T13:18:18.970Z,102205.63
2023-05-19T13:20:49.192Z,102198.66
2023-05-19T13:23:17.412Z,102204.63
2023-05-19T13:25:47.000Z,102193.41
2023-05-19T13:28:14.520Z,102183.59
2023-05-19T13:30:48.251Z,102175.09
2023-05-19T13:33:16.909Z,102172.66
2023-05-19T13:35:44.267Z,102178.47
2023-05-19T13:38:11.670Z,102184.16
2023-05-19T13:40:40.380Z,102176.97
2023-05-19T13:43:11.048Z,102177.97
2023-05-19T13:45:38.614Z,102175.31
2023-05-19T13:48:07.364Z,102177.56
2023-05-19T13:50:34.958Z,102178.53
2023-05-19T13:53:03.813Z,102176.06
2023-05-19T13:55:31.687Z,102171.91
2023-05-19T13:57:58.997Z,102166.00
2023-05-19T14:00:26.408Z,102170.63
2023-05-19T14:02:54.128Z,102158.56
2023-05-19T14:05:24.219Z,102163.09
2023-05-19T14:07:51.702Z,102162.63
2023-05-19T14:10:19.008Z,102158.16
2023-05-19T14:13:14.090Z,102155.69
2023-05-19T14:15:37.770Z,102160.25
2023-05-19T14:18:06.949Z,102162.31
2023-05-19T14:20:36.277Z,102158.38
2023-05-19T14:23:03.909Z,102161.31
2023-05-19T14:25:31.256Z,102163.91
2023-05-19T14:27:58.588Z,102158.38
2023-05-19T14:30:25.917Z,102154.91
2023-05-19T14:32:53.265Z,102155.22
2023-05-19T14:35:21.063Z,102159.94
2023-05-19T14:37:48.383Z,102153.13
2023-05-19T14:40:15.852Z,102156.59
2023-05-19T14:42:43.184Z,102154.97
2023-05-19T14:45:11.726Z,102155.44
2023-05-19T14:47:39.302Z,102150.13
2023-05-19T14:50:07.204Z,102153.25
2023-05-19T14:52:34.518Z,102143.81
2023-05-19T14:55:01.818Z,102141.66
2023-05-19T14:57:29.137Z,102143.97
2023-05-19T14:59:57.932Z,102150.72
2023-05-19T15:02:26.884Z,102141.34
2023-05-19T15:04:54.887Z,102141.72
2023-05-19T15:07:22.364Z,102137.94
2023-05-19T15:09:49.656Z,102134.41
2023-05-19T15:12:18.152Z,102135.69
2023-05-19T15:14:45.397Z,102122.94
2023-05-19T15:17:12.989Z,102121.34
2023-05-19T15:19:43.262Z,102127.25
2023-05-19T15:22:10.840Z,102127.31
2023-05-19T15:24:38.321Z,102124.25
2023-05-19T15:27:09.415Z,102120.84
2023-05-19T15:29:36.997Z,102126.25
2023-05-19T15:32:04.756Z,102125.03
2023-05-19T15:34:32.233Z,102119.66
2023-05-19T15:36:59.528Z,102126.84
2023-05-19T15:39:26.819Z,102110.59
2023-05-19T15:41:54.098Z,102112.28
2023-05-19T15:44:21.375Z,102112.97
2023-05-19T15:46:48.878Z,102103.56
2023-05-19T15:49:17.922Z,102118.47
2023-05-19T15:51:46.030Z,102115.38
2023-05-19T15:54:14.501Z,102112.22
2023-05-19T15:56:41.862Z,102107.47
2023-05-19T15:59:09.186Z,102103.03
2023-05-19T16:01:36.946Z,102097.44
2023-05-19T16:04:04.962Z,102103.44
2023-05-19T16:06:32.434Z,102098.66
2023-05-19T16:08:59.765Z,102107.81
2023-05-19T16:11:27.348Z,102096.19
2023-05-19T16:13:54.564Z,102103.06
2023-05-19T16:16:23.634Z,102095.34
2023-05-19T16:18:51.012Z,102082.50
2023-05-19T16:21:18.367Z,102094.50
2023-05-19T16:23:46.968Z,102095.00
2023-05-19T16:26:14.345Z,102082.63
2023-05-19T16:28:41.725Z,102094.84
2023-05-19T16:31:09.904Z,102092.78
2023-05-19T16:33:37.384Z,102089.41
2023-05-19T16:36:06.406Z,102084.19
2023-05-19T16:38:34.110Z,102086.72
2023-05-19T16:41:01.339Z,102087.94
2023-05-19T16:43:28.611Z,102082.56
2023-05-19T16:45:57.103Z,102084.09
2023-05-19T16:48:24.622Z,102086.16
2023-05-19T16:50:51.900Z,102078.88
2023-05-19T16:53:19.280Z,102081.03
2023-05-19T16:55:46.641Z,102082.22
2023-05-19T16:58:13.954Z,102076.19
2023-05-19T17:00:41.371Z,102081.22
2023-05-19T17:03:11.674Z,102081.31
2023-05-19T17:05:42.932Z,102082.06
2023-05-19T17:08:10.633Z,102070.78
2023-05-19T17:10:39.203Z,102081.56
2023-05-19T17:13:06.724Z,102068.59
2023-05-19T17:15:35.009Z,102088.59
2023-05-19T17:18:02.342Z,102083.38
2023-05-19T17:20:29.643Z,102081.28
2023-05-19T17:22:56.937Z,102075.25
2023-05-19T17:25:24.244Z,102068.31
2023-05-19T17:27:52.397Z,102070.16
2023-05-19T17:30:22.462Z,102070.03
2023-05-19T17:32:50.122Z,102074.50
2023-05-19T17:35:19.166Z,102073.16
2023-05-19T17:37:46.442Z,102064.53
2023-05-19T17:40:14.282Z,102078.28
2023-05-19T17:42:41.542Z,102083.09
2023-05-19T17:45:12.404Z,102082.19
2023-05-19T17:47:40.087Z,102074.66
2023-05-19T17:50:08.226Z,102080.63
2023-05-19T17:52:36.254Z,102070.53
2023-05-19T17:55:04.532Z,102080.41
2023-05-19T17:57:35.448Z,102083.28
2023-05-19T18:00:03.850Z,102090.66
2023-05-19T18:02:52.748Z,102077.69
2023-05-19T18:05:22.351Z,102077.91
2023-05-19T18:07:51.044Z,102074.94
2023-05-19T18:10:18.546Z,102082.94
2023-05-19T18:12:45.901Z,102075.16
2023-05-19T18:15:13.223Z,102078.88
2023-05-19T18:17:40.802Z,102073.69
2023-05-19T18:20:09.249Z,102078.38
2023-05-19T18:22:36.562Z,102073.38
2023-05-19T18:25:04.377Z,102080.69
2023-05-19T18:27:33.353Z,102078.56
2023-05-19T18:30:00.661Z,102087.72
2023-05-19T18:32:28.077Z,102095.31
2023-05-19T18:34:55.398Z,102091.41
2023-05-19T18:37:22.742Z,102089.16
2023-05-19T18:39:50.055Z,102094.25
2023-05-19T18:42:17.376Z,102093.06
2023-05-19T18:44:47.732Z,102097.97
2023-05-19T18:47:15.941Z,102096.56
2023-05-19T18:49:43.222Z,102103.31
2023-05-19T18:52:10.720Z,102105.44
2023-05-19T18:54:40.626Z,102110.31
2023-05-19T18:57:11.152Z,102110.59
2023-05-19T18:59:38.570Z,102106.53
2023-05-19T19:02:06.675Z,102116.72
2023-05-19T19:04:34.229Z,102109.25
2023-05-19T19:07:01.576Z,102118.50
2023-05-19T19:09:28.975Z,102115.59
2023-05-19T19:11:56.308Z,102112.56
2023-05-19T19:14:23.600Z,102123.56
2023-05-19T19:16:50.887Z,102113.44
2023-05-19T19:19:18.370Z,102113.09
2023-05-19T19:21:45.839Z,102121.22
2023-05-19T19:24:13.799Z,102119.16
2023-05-19T19:26:41.149Z,102131.94
2023-05-19T19:29:08.593Z,102133.16
2023-05-19T19:31:35.887Z,102130.97
2023-05-19T19:36:36.549Z,102136.44
2023-05-19T19:39:03.923Z,102144.75
2023-05-19T19:41:33.289Z,102145.09
2023-05-19T19:44:00.722Z,102149.03
2023-05-19T19:46:28.384Z,102147.00
2023-05-19T19:49:00.744Z,102151.81
2023-05-19T19:51:28.913Z,102158.13
2023-05-19T19:53:56.270Z,102165.59
2023-05-19T19:56:24.990Z,102157.25
2023-05-19T19:58:56.909Z,102153.31
2023-05-19T20:01:27.949Z,102162.44
2023-05-19T20:03:57.417Z,102154.03
2023-05-19T20:06:24.851Z,102161.38
2023-05-19T20:08:52.345Z,102162.47
2023-05-19T20:11:19.909Z,102152.59
2023-05-19T20:13:48.393Z,102162.97
2023-05-19T20:16:16.067Z,102165.97
2023-05-19T20:18:43.404Z,102168.09
2023-05-19T20:21:10.729Z,102164.88
2023-05-19T20:23:40.588Z,102166.94
2023-05-19T20:26:11.765Z,102174.38
2023-05-19T20:28:41.619Z,102172.13
2023-05-19T20:31:09.260Z,102172.53
2023-05-19T20:33:36.608Z,102169.38
2023-05-19T20:36:06.810Z,102173.13
2023-05-19T20:38:34.169Z,102174.44
2023-05-19T20:41:02.037Z,102180.94
2023-05-19T20:43:29.364Z,102171.59
2023-05-19T20:45:56.910Z,102166.81
2023-05-19T20:48:24.394Z,102172.94
2023-05-19T20:50:54.293Z,102181.97
2023-05-19T20:53:22.703Z,102171.00
2023-05-19T20:55:50.047Z,102174.66
2023-05-19T20:58:17.405Z,102177.53
2023-05-19T21:00:44.700Z,102178.63
2023-05-19T21:03:12.771Z,102183.22
2023-05-19T21:05:40.026Z,102168.00
2023-05-19T21:08:13.261Z,102187.22
2023-05-19T21:10:40.989Z,102175.41
2023-05-19T21:13:08.537Z,102178.97
2023-05-19T21:15:35.885Z,102180.03
2023-05-19T21:18:04.107Z,102180.34
2023-05-19T21:20:31.726Z,102185.69
2023-05-19T21:22:59.253Z,102186.78
2023-05-19T21:25:26.602Z,102193.97
2023-05-19T21:27:55.461Z,102187.94
2023-05-19T21:30:23.630Z,102185.50
2023-05-19T21:32:51.340Z,102186.59
2023-05-19T21:35:19.096Z,102188.38
2023-05-19T21:37:46.615Z,102186.81
2023-05-19T21:40:13.966Z,102184.31
2023-05-19T21:42:41.291Z,102188.03
2023-05-19T21:45:09.463Z,102192.59
2023-05-19T21:47:36.960Z,102190.97
2023-05-19T21:50:04.696Z,102191.03
2023-05-19T21:52:31.979Z,102192.72
2023-05-19T21:54:59.909Z,102187.75
2023-05-19T21:57:27.188Z,102186.81
2023-05-19T21:59:54.537Z,102190.59
2023-05-19T22:02:21.968Z,102187.13
2023-05-19T22:04:49.329Z,102193.38
2023-05-19T22:07:16.628Z,102185.53
2023-05-19T22:09:45.433Z,102186.78
2023-05-19T22:12:14.052Z,102193.66
2023-05-19T22:14:41.302Z,102193.94
2023-05-19T22:17:08.976Z,102195.81
2023-05-19T22:19:36.322Z,102194.22
2023-05-19T22:22:13.133Z,102199.56
2023-05-19T22:24:42.521Z,102200.66
2023-05-19T22:27:10.273Z,102198.84
2023-05-19T22:29:38.753Z,102198.00
2023-05-19T22:32:11.953Z,102198.28
2023-05-19T22:34:39.615Z,102203.50
2023-05-19T22:37:06.954Z,102202.63
2023-05-19T22:39:34.290Z,102197.41
2023-05-19T22:42:02.572Z,102195.00
2023-05-19T22:44:30.067Z,102200.41
2023-05-19T22:46:57.444Z,102197.06
2023-05-19T22:49:26.162Z,102193.66
2023-05-19T22:51:53.609Z,102191.22
2023-05-19T22:54:21.478Z,102193.84
2023-05-19T22:56:49.039Z,102194.75
2023-05-19T22:59:19.243Z,102196.56
2023-05-19T23:01:46.811Z,102193.91
2023-05-19T23:04:14.521Z,102188.66
2023-05-19T23:06:41.949Z,102183.44
2023-05-19T23:09:09.245Z,102184.22
2023-05-19T23:11:36.683Z,102177.31
2023-05-19T23:14:05.081Z,102184.38
2023-05-19T23:16:32.453Z,102178.25
2023-05-19T23:18:59.775Z,102177.38
2023-05-19T23:21:27.121Z,102184.28
2023-05-19T23:23:55.578Z,102188.59
2023-05-19T23:26:22.926Z,102191.06
2023-05-19T23:28:51.331Z,102180.63
2023-05-19T23:31:18.609Z,102186.03
2023-05-19T23:33:46.043Z,102185.06
2023-05-19T23:36:13.487Z,102195.66
2023-05-19T23:38:41.107Z,102184.50
2023-05-19T23:41:08.405Z,102185.47
2023-05-19T23:43:35.855Z,102182.25
2023-05-19T23:46:03.536Z,102183.94
2023-05-19T23:48:33.714Z,102185.63
2023-05-19T23:51:02.604Z,102186.88
2023-05-19T23:53:30.014Z,102190.47
2023-05-19T23:55:58.730Z,102184.50
2023-05-19T23:58:26.096Z,102184.69
